Falls Of Rough, Kentucky
Current Conditions -  °F | °C
As of 4:03 PM on Sunday 25 Jan 2015 (Local Time) from KFTK Reporting Station
Unknown Precip Unknown Precip  
Wind Chill: 40°   Ceiling: 2600
Heat Index: 43°   Visibility: 6mi
Dew Point: 39°   Wind: 5mph
Humidity: 87%   Direction: 230°SW
Pressure: 29.61"   Gusts: NA
Location:  37.57°N, 86.48°W
Report Text: KFTK 252203Z AUTO 23004KT 6SM UP BKN026 OVC036 06/04 A2961 RMK AO2 CIG 026V037 BKN V FEW
Loading
Personal Weather Stations






























Interactive Weather Map New forecast layout! Learn more

10-Day Weather Forecast

Advertisements
Track Severe Weather on mobile